Time;durP1;ratioP1;P1;durP2;ratioP2;P2;SDS_P1;SDS_P2;PMS_P1;PMS_P2;Temp;Humidity;BMP_temperature;BMP_pressure;BME280_temperature;BME280_humidity;BME280_pressure;Samples;Min_cycle;Max_cycle;Signal;HPM_P1;HPM_P2
2023/03/20 00:00:51;;;;;;;0.60;0.50;;;10.90;99.90;;;;;;4962931;28;20204;-66
2023/03/20 00:03:19;;;;;;;1.38;1.23;;;10.90;99.90;;;;;;4960123;28;20227;-65
2023/03/20 00:05:48;;;;;;;1.08;0.95;;;10.80;99.90;;;;;;4945890;28;20338;-65
2023/03/20 00:08:15;;;;;;;1.05;0.60;;;10.70;99.90;;;;;;4949885;28;20286;-65
2023/03/20 00:10:46;;;;;;;1.35;1.08;;;10.60;99.90;;;;;;4950951;28;20215;-65
2023/03/20 00:13:17;;;;;;;1.52;1.42;;;10.50;99.90;;;;;;4951307;28;20290;-66
2023/03/20 00:15:45;;;;;;;0.85;0.70;;;10.50;99.90;;;;;;4952227;28;20227;-66
2023/03/20 00:18:18;;;;;;;1.15;0.60;;;10.50;99.90;;;;;;4963507;28;20227;-65
2023/03/20 00:20:47;;;;;;;0.70;0.60;;;10.40;99.90;;;;;;4948490;28;20298;-65
2023/03/20 00:23:16;;;;;;;0.95;0.93;;;10.50;99.90;;;;;;4949945;28;20223;-65
2023/03/20 00:25:46;;;;;;;0.70;0.70;;;10.50;99.90;;;;;;4954426;28;20758;-65
2023/03/20 00:28:39;;;;;;;1.38;0.98;;;10.40;99.90;;;;;;4954304;28;20302;-65
2023/03/20 00:31:18;;;;;;;0.90;0.80;;;10.50;99.90;;;;;;4949259;28;20203;-65
2023/03/20 00:33:48;;;;;;;2.90;1.08;;;10.40;99.90;;;;;;4951314;28;20733;-65
2023/03/20 00:36:16;;;;;;;1.30;1.13;;;10.40;99.90;;;;;;4951683;28;20684;-66
2023/03/20 00:38:44;;;;;;;1.05;0.70;;;10.50;99.90;;;;;;4947912;28;20678;-65
2023/03/20 00:41:22;;;;;;;0.75;0.73;;;10.40;99.90;;;;;;4956716;28;20221;-65
2023/03/20 00:43:53;;;;;;;0.70;0.70;;;10.40;99.90;;;;;;4946275;28;20234;-65
2023/03/20 00:46:21;;;;;;;1.25;0.73;;;10.40;99.90;;;;;;4956401;28;20227;-64
2023/03/20 00:48:50;;;;;;;1.00;1.00;;;10.40;99.90;;;;;;4955675;28;20203;-66
2023/03/20 00:51:19;;;;;;;0.70;0.60;;;10.40;99.90;;;;;;4966926;28;20674;-65
2023/03/20 00:53:47;;;;;;;1.20;1.15;;;10.40;99.90;;;;;;4963109;28;20230;-65
2023/03/20 00:56:30;;;;;;;1.30;0.95;;;10.30;99.90;;;;;;4963377;28;20254;-65
2023/03/20 00:59:00;;;;;;;1.05;0.95;;;10.30;99.90;;;;;;4965717;28;20202;-65
2023/03/20 01:01:29;;;;;;;1.55;1.17;;;10.40;99.90;;;;;;4950584;28;20289;-65
2023/03/20 01:04:00;;;;;;;1.35;1.25;;;10.50;99.90;;;;;;4947193;28;20724;-66
2023/03/20 01:06:30;;;;;;;1.67;1.30;;;10.50;99.90;;;;;;4949289;28;20309;-65
2023/03/20 01:08:57;;;;;;;1.17;1.05;;;10.40;99.90;;;;;;4951268;28;20617;-65
2023/03/20 01:11:25;;;;;;;0.80;0.80;;;10.50;99.90;;;;;;4952408;28;20234;-67
2023/03/20 01:13:53;;;;;;;0.80;0.70;;;10.50;99.90;;;;;;4949067;28;20278;-66
2023/03/20 01:16:24;;;;;;;1.55;0.98;;;10.40;99.90;;;;;;4956576;28;20717;-66
2023/03/20 01:18:52;;;;;;;0.80;0.70;;;10.40;99.90;;;;;;4952859;28;20706;-64
2023/03/20 01:21:22;;;;;;;1.70;1.50;;;10.40;99.90;;;;;;4949525;28;20670;-66
2023/03/20 01:23:50;;;;;;;1.00;0.90;;;10.40;99.90;;;;;;4949844;28;20243;-66
2023/03/20 01:26:27;;;;;;;1.20;1.10;;;10.40;99.90;;;;;;4949960;28;20253;-66
2023/03/20 01:28:54;;;;;;;0.70;0.70;;;10.50;99.90;;;;;;4955044;28;20242;-66
2023/03/20 01:31:22;;;;;;;0.68;0.68;;;10.50;99.90;;;;;;4950764;28;20714;-66
2023/03/20 01:33:51;;;;;;;0.95;0.70;;;10.50;99.90;;;;;;4952266;28;20579;-66
2023/03/20 01:36:23;;;;;;;1.60;0.63;;;10.60;99.90;;;;;;4949657;28;20302;-65
2023/03/20 01:38:54;;;;;;;0.75;0.70;;;10.60;99.90;;;;;;4951879;28;20222;-66
2023/03/20 01:41:24;;;;;;;0.70;0.60;;;10.70;99.90;;;;;;4956418;28;20286;-64
2023/03/20 01:43:52;;;;;;;1.27;0.82;;;10.70;99.90;;;;;;4953341;28;20726;-65
2023/03/20 01:46:24;;;;;;;1.67;0.85;;;10.70;99.90;;;;;;4954485;28;20329;-65
2023/03/20 01:49:05;;;;;;;0.85;0.85;;;10.70;99.90;;;;;;4956381;28;20206;-64
2023/03/20 01:51:36;;;;;;;1.40;1.02;;;10.80;99.90;;;;;;4946819;28;20258;-67
2023/03/20 01:54:08;;;;;;;0.70;0.60;;;10.70;99.90;;;;;;4953063;28;20271;-66
2023/03/20 01:56:39;;;;;;;1.23;1.02;;;10.70;99.90;;;;;;4949416;28;20659;-66
2023/03/20 01:59:10;;;;;;;0.80;0.73;;;10.50;99.90;;;;;;4952080;28;20231;-66
2023/03/20 02:01:42;;;;;;;1.65;1.55;;;10.50;99.90;;;;;;4958754;28;20681;-66
2023/03/20 02:04:11;;;;;;;1.08;0.98;;;10.40;99.90;;;;;;4957100;28;20647;-66
2023/03/20 02:06:43;;;;;;;2.03;1.92;;;10.50;99.90;;;;;;4947570;28;20211;-66
2023/03/20 02:09:12;;;;;;;0.82;0.73;;;10.40;99.90;;;;;;4948928;28;20211;-67
2023/03/20 02:11:41;;;;;;;0.90;0.80;;;10.40;99.90;;;;;;4960835;28;20745;-67
2023/03/20 02:14:10;;;;;;;1.15;1.08;;;10.40;99.90;;;;;;4955638;28;21021;-66
2023/03/20 02:16:38;;;;;;;0.60;0.50;;;10.50;99.90;;;;;;4953425;28;20289;-66
2023/03/20 02:19:13;;;;;;;0.85;0.82;;;10.50;99.90;;;;;;4954079;28;20215;-65
2023/03/20 02:22:24;;;;;;;2.00;1.40;;;10.50;99.90;;;;;;4961053;28;20247;-65
2023/03/20 02:25:28;;;;;;;0.90;0.90;;;10.40;99.90;;;;;;4948497;28;20313;-65
2023/03/20 02:28:23;;;;;;;1.65;0.90;;;10.50;99.90;;;;;;4949325;28;20238;-65
2023/03/20 02:31:14;;;;;;;1.27;0.90;;;10.40;99.90;;;;;;4949955;28;20214;-65
2023/03/20 02:34:18;;;;;;;1.05;0.85;;;10.40;99.90;;;;;;4951226;28;20211;-65
2023/03/20 02:37:18;;;;;;;0.60;0.52;;;10.50;99.90;;;;;;4948980;28;20230;-67
2023/03/20 02:39:58;;;;;;;1.63;1.52;;;10.40;99.90;;;;;;4946083;28;20246;-67
2023/03/20 02:42:36;;;;;;;3.38;1.13;;;10.40;99.90;;;;;;4954199;28;20281;-67
2023/03/20 02:45:16;;;;;;;0.80;0.70;;;10.40;99.90;;;;;;4952924;28;20706;-66
2023/03/20 02:47:50;;;;;;;1.20;1.10;;;10.40;99.90;;;;;;4955676;28;20294;-67
2023/03/20 02:50:25;;;;;;;1.17;1.08;;;10.40;99.90;;;;;;4950164;28;20231;-68
2023/03/20 02:53:05;;;;;;;0.95;0.73;;;10.50;99.90;;;;;;4962482;28;20202;-66
2023/03/20 02:55:39;;;;;;;1.00;0.85;;;10.40;99.90;;;;;;4964036;28;20222;-66
2023/03/20 02:58:14;;;;;;;0.82;0.82;;;10.40;99.90;;;;;;4957334;28;20620;-65
2023/03/20 03:00:50;;;;;;;1.15;1.05;;;10.40;99.90;;;;;;4951959;28;20245;-65
2023/03/20 03:03:22;;;;;;;0.90;0.80;;;10.40;99.90;;;;;;4953391;28;20299;-66
2023/03/20 03:05:55;;;;;;;1.23;0.90;;;10.40;99.90;;;;;;4946834;28;20289;-66
2023/03/20 03:08:30;;;;;;;0.60;0.60;;;10.40;99.90;;;;;;4945967;28;20238;-65
2023/03/20 03:11:03;;;;;;;1.13;0.90;;;10.30;99.90;;;;;;4948509;28;20745;-65
2023/03/20 03:13:34;;;;;;;1.00;0.85;;;10.30;99.90;;;;;;4948041;28;20227;-66
2023/03/20 03:16:08;;;;;;;1.33;1.23;;;10.40;99.90;;;;;;4947466;28;20250;-66
2023/03/20 03:18:38;;;;;;;0.75;0.75;;;10.40;99.90;;;;;;4955015;28;20262;-66
2023/03/20 03:21:09;;;;;;;0.80;0.80;;;10.50;99.90;;;;;;4951123;28;20213;-65
2023/03/20 03:23:43;;;;;;;2.15;1.40;;;10.50;99.90;;;;;;4953311;28;20207;-66
2023/03/20 03:26:15;;;;;;;0.80;0.80;;;10.50;99.90;;;;;;4949902;28;20234;-66
2023/03/20 03:28:47;;;;;;;0.85;0.85;;;10.50;99.90;;;;;;4949117;28;20295;-66
2023/03/20 03:31:17;;;;;;;2.97;0.80;;;10.60;99.90;;;;;;4948444;28;20219;-66
2023/03/20 03:33:48;;;;;;;1.63;1.52;;;10.50;99.90;;;;;;4949691;28;20262;-66
2023/03/20 03:36:31;;;;;;;1.50;1.02;;;10.40;99.90;;;;;;4950116;28;20722;-66
2023/03/20 03:39:05;;;;;;;1.65;0.88;;;10.50;99.90;;;;;;4948461;28;20207;-66
2023/03/20 03:41:41;;;;;;;1.33;1.15;;;10.50;99.90;;;;;;4958372;28;20638;-66
2023/03/20 03:44:15;;;;;;;0.65;0.65;;;10.60;99.90;;;;;;4949091;28;20206;-66
2023/03/20 03:46:48;;;;;;;1.67;1.58;;;10.60;99.90;;;;;;4955385;28;20292;-66
2023/03/20 03:49:22;;;;;;;0.80;0.80;;;10.70;99.90;;;;;;4955721;28;20214;-65
2023/03/20 03:51:54;;;;;;;0.80;0.60;;;10.70;99.90;;;;;;4961559;28;20578;-66
2023/03/20 03:54:26;;;;;;;1.15;1.08;;;10.70;99.90;;;;;;4950956;28;20682;-66
2023/03/20 03:56:55;;;;;;;0.70;0.60;;;10.70;99.90;;;;;;4953572;28;20210;-66
2023/03/20 03:59:28;;;;;;;1.50;1.40;;;10.80;99.90;;;;;;4954449;28;20211;-66
2023/03/20 04:01:58;;;;;;;1.45;1.35;;;10.60;99.90;;;;;;4962097;28;20214;-66
2023/03/20 04:04:29;;;;;;;2.90;1.45;;;10.60;99.90;;;;;;4952565;28;20215;-66
2023/03/20 04:06:57;;;;;;;1.45;0.60;;;10.70;99.90;;;;;;4950226;28;20207;-66
2023/03/20 04:09:26;;;;;;;0.70;0.60;;;10.60;99.90;;;;;;4950716;28;20227;-67
2023/03/20 04:11:54;;;;;;;0.80;0.65;;;10.70;99.90;;;;;;4953251;28;20238;-66
2023/03/20 04:14:22;;;;;;;0.82;0.70;;;10.70;99.90;;;;;;4952199;28;20282;-66
2023/03/20 04:16:50;;;;;;;1.60;1.50;;;10.70;99.90;;;;;;4951972;28;20231;-66
2023/03/20 04:19:18;;;;;;;0.70;0.70;;;10.80;99.90;;;;;;4957125;28;20306;-66
2023/03/20 04:21:45;;;;;;;0.63;0.63;;;10.70;99.90;;;;;;4952428;28;20632;-65
2023/03/20 04:24:14;;;;;;;1.20;1.10;;;10.70;99.90;;;;;;4950259;28;20231;-66
2023/03/20 04:26:43;;;;;;;2.63;1.75;;;10.70;99.90;;;;;;4951931;29;20698;-66
2023/03/20 04:29:12;;;;;;;1.20;1.10;;;10.70;99.90;;;;;;4948487;28;20289;-66
2023/03/20 04:31:40;;;;;;;2.00;1.80;;;10.70;99.90;;;;;;4950280;28;20234;-66
2023/03/20 04:34:08;;;;;;;0.98;0.68;;;10.60;99.90;;;;;;4951411;28;20564;-66
2023/03/20 04:36:36;;;;;;;1.15;1.05;;;10.60;99.90;;;;;;4951025;28;20223;-66
2023/03/20 04:39:04;;;;;;;0.73;0.73;;;10.60;99.90;;;;;;4950882;28;20683;-65
2023/03/20 04:41:31;;;;;;;0.82;0.82;;;10.40;99.90;;;;;;4952384;28;21905;-65
2023/03/20 04:44:01;;;;;;;1.35;1.25;;;10.40;99.90;;;;;;4950895;28;20712;-67
2023/03/20 04:46:28;;;;;;;0.80;0.70;;;10.50;99.90;;;;;;4951531;28;20231;-66
2023/03/20 04:48:56;;;;;;;1.13;0.63;;;10.60;99.90;;;;;;4951852;28;20233;-66
2023/03/20 04:51:24;;;;;;;1.45;1.35;;;10.60;99.90;;;;;;4954443;28;20213;-65
2023/03/20 04:53:52;;;;;;;1.40;1.30;;;10.80;99.90;;;;;;4963176;28;20294;-64
2023/03/20 04:56:20;;;;;;;1.27;0.90;;;10.80;99.90;;;;;;4961167;28;20652;-66
2023/03/20 04:58:48;;;;;;;2.35;2.05;;;10.80;99.90;;;;;;4962953;28;20210;-66
2023/03/20 05:01:17;;;;;;;1.67;1.58;;;10.70;99.90;;;;;;4954649;28;20358;-65
2023/03/20 05:03:45;;;;;;;2.95;2.35;;;10.60;99.90;;;;;;4948286;28;20270;-67
2023/03/20 05:06:13;;;;;;;2.47;2.25;;;10.50;99.90;;;;;;4948824;28;20242;-66
2023/03/20 05:08:41;;;;;;;1.75;1.58;;;10.40;99.90;;;;;;4949121;28;20207;-65
2023/03/20 05:11:09;;;;;;;2.15;1.35;;;10.40;99.90;;;;;;4949621;28;20283;-65
2023/03/20 05:13:36;;;;;;;2.35;1.40;;;10.40;99.90;;;;;;4949174;28;20622;-65
2023/03/20 05:16:05;;;;;;;4.03;2.00;;;10.30;99.90;;;;;;4954811;28;20242;-67
2023/03/20 05:18:34;;;;;;;2.35;1.45;;;10.20;99.90;;;;;;4946798;28;20294;-68
2023/03/20 05:21:03;;;;;;;1.38;1.15;;;10.10;99.90;;;;;;4950704;28;20229;-68
2023/03/20 05:23:31;;;;;;;2.17;1.63;;;10.00;99.90;;;;;;4951343;28;20641;-68
2023/03/20 05:25:58;;;;;;;2.70;1.70;;;10.00;99.90;;;;;;4952011;28;20229;-66
2023/03/20 05:28:26;;;;;;;1.42;1.25;;;10.10;99.90;;;;;;4950543;28;20291;-67
2023/03/20 05:30:54;;;;;;;2.38;2.03;;;10.20;99.90;;;;;;4951839;28;20200;-66
2023/03/20 05:33:23;;;;;;;1.75;1.40;;;10.30;99.90;;;;;;4956624;28;20207;-66
2023/03/20 05:35:52;;;;;;;2.03;1.77;;;10.30;99.90;;;;;;4987852;23;20687;-75
2023/03/20 05:38:21;;;;;;;2.45;2.00;;;10.40;99.90;;;;;;4964482;28;20220;-71
2023/03/20 05:40:49;;;;;;;2.88;1.52;;;10.50;99.90;;;;;;4967931;28;20207;-69
2023/03/20 05:43:17;;;;;;;1.35;1.25;;;10.50;99.90;;;;;;4971309;28;20310;-69
2023/03/20 05:45:45;;;;;;;0.85;0.85;;;10.40;99.90;;;;;;4972101;28;20249;-70
2023/03/20 05:48:13;;;;;;;2.83;2.65;;;10.40;99.90;;;;;;4980912;28;20555;-69
2023/03/20 05:50:41;;;;;;;2.80;1.88;;;10.40;99.90;;;;;;4983433;28;20240;-68
2023/03/20 05:53:10;;;;;;;2.38;2.17;;;10.40;99.90;;;;;;4983108;28;20636;-68
2023/03/20 05:55:38;;;;;;;5.70;3.17;;;10.30;99.90;;;;;;4980083;28;20308;-68
2023/03/20 05:58:06;;;;;;;1.30;1.20;;;10.30;99.90;;;;;;4980424;28;20207;-69
2023/03/20 06:00:34;;;;;;;4.40;2.78;;;10.30;99.90;;;;;;4972418;28;20210;-68
2023/03/20 06:03:01;;;;;;;1.45;1.35;;;10.30;99.90;;;;;;4979957;28;20206;-68
2023/03/20 06:05:29;;;;;;;6.75;3.20;;;10.30;99.90;;;;;;4982853;28;20228;-68
2023/03/20 06:07:57;;;;;;;2.17;1.92;;;10.40;99.90;;;;;;4978931;28;20227;-69
2023/03/20 06:10:28;;;;;;;6.88;1.73;;;10.40;99.90;;;;;;4971482;28;20210;-69
2023/03/20 06:12:59;;;;;;;1.65;1.45;;;10.40;99.90;;;;;;4979872;28;20225;-70
2023/03/20 06:15:28;;;;;;;1.60;1.50;;;10.50;99.90;;;;;;4982648;28;20658;-68
2023/03/20 06:17:56;;;;;;;3.78;2.90;;;10.60;99.90;;;;;;4983465;28;20197;-68
2023/03/20 06:20:24;;;;;;;2.08;1.33;;;10.60;99.90;;;;;;4980214;28;20292;-69
2023/03/20 06:22:52;;;;;;;1.40;1.30;;;10.60;99.90;;;;;;4979671;28;20290;-69
2023/03/20 06:25:21;;;;;;;2.47;2.38;;;10.50;99.90;;;;;;4981433;28;20618;-70
2023/03/20 06:27:50;;;;;;;2.45;1.63;;;10.50;99.90;;;;;;4974300;28;20313;-68
2023/03/20 06:30:18;;;;;;;1.55;1.45;;;10.50;99.90;;;;;;4981198;28;20214;-68
2023/03/20 06:32:47;;;;;;;2.95;2.08;;;10.40;99.90;;;;;;4981949;28;20260;-68
2023/03/20 06:35:15;;;;;;;2.20;1.98;;;10.40;99.90;;;;;;4979179;28;20353;-69
2023/03/20 06:37:43;;;;;;;1.70;1.60;;;10.50;99.90;;;;;;4972008;28;20211;-69
2023/03/20 06:40:11;;;;;;;3.63;3.03;;;10.50;99.90;;;;;;4971810;28;20245;-69
2023/03/20 06:42:39;;;;;;;1.77;1.33;;;10.40;99.90;;;;;;4983068;28;20293;-68
2023/03/20 06:45:09;;;;;;;3.08;1.92;;;10.40;99.90;;;;;;4982578;28;20225;-68
2023/03/20 06:47:37;;;;;;;1.88;1.52;;;10.30;99.90;;;;;;4979604;28;20219;-68
2023/03/20 06:50:06;;;;;;;2.45;1.80;;;10.30;99.90;;;;;;4979356;28;20297;-67
2023/03/20 06:52:35;;;;;;;2.78;1.77;;;10.30;99.90;;;;;;4972054;28;20210;-68
2023/03/20 06:55:03;;;;;;;2.42;1.80;;;10.30;99.90;;;;;;4979554;28;20313;-68
2023/03/20 06:57:31;;;;;;;2.60;2.03;;;10.30;99.90;;;;;;4982789;28;20206;-67
2023/03/20 06:59:59;;;;;;;3.20;2.85;;;10.40;99.90;;;;;;4982624;28;20288;-67
2023/03/20 07:02:28;;;;;;;2.38;2.28;;;10.50;99.90;;;;;;4979882;28;20360;-67
2023/03/20 07:04:56;;;;;;;2.75;2.45;;;10.60;99.90;;;;;;4979620;28;20309;-67
2023/03/20 07:07:23;;;;;;;4.95;3.75;;;10.60;99.90;;;;;;4972089;28;20317;-69
2023/03/20 07:09:51;;;;;;;2.90;2.35;;;10.60;99.90;;;;;;4977128;28;20581;-67
2023/03/20 07:12:19;;;;;;;3.78;3.08;;;10.60;99.90;;;;;;4980932;28;20209;-67
2023/03/20 07:14:47;;;;;;;2.72;1.98;;;10.60;99.90;;;;;;4979097;28;20387;-67
2023/03/20 07:17:15;;;;;;;2.80;2.60;;;10.60;99.90;;;;;;4980469;28;20693;-67
2023/03/20 07:19:44;;;;;;;2.72;2.10;;;10.60;99.90;;;;;;4986001;28;20229;-67
2023/03/20 07:22:21;;;;;;;3.15;2.83;;;10.50;99.90;;;;;;4985515;28;20241;-67
2023/03/20 07:24:49;;;;;;;6.03;3.65;;;10.50;99.90;;;;;;4982033;28;20257;-71
2023/03/20 07:27:17;;;;;;;4.22;3.78;;;10.50;99.90;;;;;;4984369;28;20264;-68
2023/03/20 07:29:45;;;;;;;2.10;1.63;;;10.60;99.90;;;;;;4986312;28;20208;-68
2023/03/20 07:32:13;;;;;;;2.45;1.88;;;10.60;99.90;;;;;;4985700;28;20656;-68
2023/03/20 07:34:41;;;;;;;3.92;2.63;;;10.70;99.90;;;;;;4982903;28;20247;-68
2023/03/20 07:37:10;;;;;;;4.70;2.92;;;10.70;99.90;;;;;;4980883;28;20203;-68
2023/03/20 07:39:38;;;;;;;1.52;1.42;;;10.70;99.90;;;;;;4979006;28;20241;-68
2023/03/20 07:42:06;;;;;;;2.47;1.67;;;10.70;99.90;;;;;;4986266;28;20229;-67
2023/03/20 07:44:34;;;;;;;4.15;2.22;;;10.70;99.90;;;;;;4975270;28;20230;-68
2023/03/20 07:47:02;;;;;;;2.58;2.30;;;10.80;99.90;;;;;;4983034;28;20663;-68
2023/03/20 07:49:30;;;;;;;3.72;2.15;;;10.80;99.90;;;;;;4985657;28;20313;-70
2023/03/20 07:51:58;;;;;;;3.17;2.30;;;10.80;99.90;;;;;;4986336;28;20286;-68
2023/03/20 07:54:27;;;;;;;2.60;1.63;;;10.90;99.90;;;;;;4983111;28;20300;-67
2023/03/20 07:56:55;;;;;;;2.53;1.92;;;10.90;99.90;;;;;;4983296;28;20202;-67
2023/03/20 07:59:23;;;;;;;4.18;3.20;;;11.00;99.90;;;;;;4984830;28;20249;-69
2023/03/20 08:01:51;;;;;;;3.60;2.75;;;11.00;99.90;;;;;;4986125;28;20237;-68
2023/03/20 08:04:21;;;;;;;1.23;1.00;;;11.00;99.90;;;;;;4984316;28;20245;-69
2023/03/20 08:06:50;;;;;;;2.03;1.40;;;11.20;99.90;;;;;;4985718;28;20221;-68
2023/03/20 08:09:19;;;;;;;2.78;2.10;;;11.10;99.90;;;;;;4984270;28;20673;-67
2023/03/20 08:11:48;;;;;;;3.25;2.10;;;11.10;99.90;;;;;;4982552;28;20290;-67
2023/03/20 08:14:16;;;;;;;3.63;2.95;;;11.10;99.90;;;;;;4983602;28;20210;-67
2023/03/20 08:16:44;;;;;;;2.10;2.00;;;11.20;99.90;;;;;;4985751;28;20264;-68
2023/03/20 08:19:12;;;;;;;3.83;1.95;;;11.20;99.90;;;;;;4984893;28;20272;-68
2023/03/20 08:21:40;;;;;;;4.00;3.17;;;11.20;99.90;;;;;;4982308;28;20213;-68
2023/03/20 08:24:08;;;;;;;3.00;2.47;;;11.20;99.90;;;;;;4982251;28;20298;-70
2023/03/20 08:26:36;;;;;;;3.05;2.85;;;11.20;99.90;;;;;;4985422;28;20232;-68
2023/03/20 08:29:06;;;;;;;2.28;2.00;;;11.10;99.90;;;;;;4985426;28;20249;-68
2023/03/20 08:31:33;;;;;;;1.33;1.17;;;11.00;99.90;;;;;;4974343;28;20257;-68
2023/03/20 08:34:01;;;;;;;2.78;1.35;;;10.90;99.90;;;;;;4982069;28;20217;-68
2023/03/20 08:36:29;;;;;;;1.50;1.40;;;11.00;99.90;;;;;;4981399;28;20230;-68
2023/03/20 08:38:57;;;;;;;1.70;1.25;;;10.90;99.90;;;;;;4974034;28;20290;-68
2023/03/20 08:41:25;;;;;;;2.28;2.08;;;10.80;99.90;;;;;;4982127;28;20245;-67
2023/03/20 08:43:53;;;;;;;2.55;1.80;;;10.90;99.90;;;;;;4981778;28;20669;-69
2023/03/20 08:46:22;;;;;;;3.55;3.15;;;10.90;99.90;;;;;;4983539;28;20309;-68
2023/03/20 08:48:50;;;;;;;5.15;2.92;;;11.00;99.90;;;;;;4985391;28;20233;-68
2023/03/20 08:51:18;;;;;;;1.77;1.58;;;10.90;99.90;;;;;;4983329;28;20206;-68
2023/03/20 08:53:46;;;;;;;2.00;1.85;;;11.00;99.90;;;;;;4981959;28;20237;-67
2023/03/20 08:56:14;;;;;;;2.58;1.55;;;11.10;99.90;;;;;;4982664;28;20262;-68
2023/03/20 08:58:42;;;;;;;3.08;2.42;;;11.20;99.90;;;;;;4985022;28;20756;-68
2023/03/20 09:01:10;;;;;;;2.38;1.55;;;11.30;99.90;;;;;;4984251;28;20776;-67
2023/03/20 09:03:39;;;;;;;2.20;2.00;;;11.40;99.90;;;;;;4981754;28;20625;-68
2023/03/20 09:06:09;;;;;;;2.75;1.30;;;11.50;99.90;;;;;;4981510;28;20272;-67
2023/03/20 09:08:37;;;;;;;2.70;2.25;;;11.60;99.90;;;;;;4981684;28;20374;-68
2023/03/20 09:11:06;;;;;;;2.30;2.10;;;11.70;99.90;;;;;;4981278;28;20674;-67
2023/03/20 09:13:34;;;;;;;2.05;1.85;;;11.80;99.90;;;;;;4973374;28;20289;-68
2023/03/20 09:16:02;;;;;;;3.70;3.38;;;11.80;99.90;;;;;;4981210;28;20268;-67
2023/03/20 09:18:30;;;;;;;1.85;1.75;;;11.90;99.90;;;;;;4984361;28;20202;-68
2023/03/20 09:21:00;;;;;;;2.70;1.23;;;11.90;99.90;;;;;;4984259;28;20264;-68
2023/03/20 09:23:27;;;;;;;2.35;1.25;;;11.90;99.90;;;;;;4981737;28;20698;-68
2023/03/20 09:25:55;;;;;;;1.20;1.08;;;11.90;99.90;;;;;;4981052;28;20240;-67
2023/03/20 09:28:23;;;;;;;2.60;2.35;;;11.90;99.90;;;;;;4983151;28;20234;-69
2023/03/20 09:30:55;;;;;;;3.45;3.17;;;12.00;99.90;;;;;;4984272;28;20297;-67
2023/03/20 09:33:24;;;;;;;2.00;1.90;;;12.40;99.90;;;;;;4981639;28;20577;-67
2023/03/20 09:35:52;;;;;;;2.05;1.88;;;12.90;99.90;;;;;;4980712;28;20238;-68
2023/03/20 09:38:21;;;;;;;2.50;2.30;;;13.30;99.90;;;;;;4972705;28;20238;-67
2023/03/20 09:40:52;;;;;;;2.72;2.53;;;13.90;99.90;;;;;;4977528;28;20673;-67
2023/03/20 09:43:33;;;;;;;2.38;2.10;;;14.50;99.90;;;;;;4982312;28;20244;-67
2023/03/20 09:46:14;;;;;;;1.33;1.20;;;14.80;99.90;;;;;;4980834;28;20312;-67
2023/03/20 09:48:49;;;;;;;1.13;1.02;;;14.70;99.90;;;;;;4974184;28;20219;-69
2023/03/20 09:51:27;;;;;;;2.13;2.00;;;14.30;99.90;;;;;;4981927;28;20289;-67
2023/03/20 09:54:02;;;;;;;1.67;1.52;;;14.20;99.90;;;;;;4983996;28;20229;-67
2023/03/20 09:56:31;;;;;;;1.20;1.10;;;14.00;99.90;;;;;;4980905;28;20229;-67
2023/03/20 09:59:02;;;;;;;0.80;0.80;;;13.80;99.90;;;;;;4980820;28;20913;-67
2023/03/20 10:01:33;;;;;;;1.75;1.65;;;13.60;99.90;;;;;;4983082;28;20210;-67
2023/03/20 10:04:08;;;;;;;1.23;0.95;;;13.40;99.90;;;;;;4983708;28;20216;-66
2023/03/20 10:06:36;;;;;;;2.75;1.80;;;13.40;99.90;;;;;;4982843;28;20217;-70
2023/03/20 10:09:15;;;;;;;0.70;0.60;;;13.20;99.90;;;;;;4964202;28;20303;-67
2023/03/20 10:12:08;;;;;;;1.65;1.55;;;13.10;99.90;;;;;;4965884;28;20576;-66
2023/03/20 10:14:49;;;;;;;1.13;1.02;;;13.10;99.90;;;;;;4972079;28;20767;-67
2023/03/20 10:17:39;;;;;;;0.98;0.98;;;13.40;99.90;;;;;;4972053;28;20636;-68
2023/03/20 10:20:13;;;;;;;1.70;1.48;;;13.50;99.90;;;;;;4972342;28;20226;-67
2023/03/20 10:22:46;;;;;;;1.40;0.80;;;13.60;99.90;;;;;;4979176;28;20609;-67
2023/03/20 10:25:24;;;;;;;3.00;2.13;;;13.40;99.90;;;;;;4972090;28;20776;-67
2023/03/20 10:27:58;;;;;;;0.85;0.70;;;13.40;99.90;;;;;;4980229;28;20237;-66
2023/03/20 10:30:39;;;;;;;2.15;1.95;;;13.50;99.90;;;;;;4972050;28;20293;-66
2023/03/20 10:33:15;;;;;;;2.05;1.77;;;13.50;99.90;;;;;;4971891;28;20214;-66
2023/03/20 10:35:49;;;;;;;1.75;1.65;;;13.30;99.90;;;;;;4971854;28;20292;-66
2023/03/20 10:38:26;;;;;;;6.05;1.58;;;13.30;99.90;;;;;;4971868;28;20206;-67
2023/03/20 10:40:58;;;;;;;1.67;1.58;;;13.60;99.90;;;;;;4971962;28;20265;-66
2023/03/20 10:43:31;;;;;;;1.98;1.70;;;13.80;99.90;;;;;;4982218;28;20248;-67
2023/03/20 10:46:05;;;;;;;2.00;1.90;;;13.60;99.90;;;;;;4983444;28;20226;-66
2023/03/20 10:48:38;;;;;;;1.30;1.20;;;13.60;99.90;;;;;;4979887;28;20225;-67
2023/03/20 10:51:13;;;;;;;0.98;0.90;;;13.50;99.90;;;;;;4979889;28;20279;-67
2023/03/20 10:53:46;;;;;;;0.80;0.80;;;13.60;99.90;;;;;;4983584;28;20197;-67
2023/03/20 10:56:20;;;;;;;0.88;0.88;;;13.80;99.90;;;;;;4984328;28;20240;-66
2023/03/20 10:58:58;;;;;;;1.50;1.40;;;14.60;99.90;;;;;;4990153;28;20235;-67
2023/03/20 11:01:27;;;;;;;2.20;2.05;;;15.20;99.90;;;;;;4986236;28;20646;-67
2023/03/20 11:03:55;;;;;;;1.08;1.08;;;15.30;99.90;;;;;;4987148;28;20285;-68
2023/03/20 11:06:28;;;;;;;0.50;0.40;;;15.20;99.90;;;;;;4984767;28;20603;-68
2023/03/20 11:08:57;;;;;;;0.68;0.60;;;15.00;99.90;;;;;;4975387;28;20318;-67
2023/03/20 11:11:28;;;;;;;0.73;0.68;;;14.90;99.90;;;;;;4977651;28;20234;-67
2023/03/20 11:13:55;;;;;;;0.90;0.75;;;15.00;99.90;;;;;;4986955;28;20225;-67
2023/03/20 11:16:26;;;;;;;1.08;0.98;;;14.90;99.90;;;;;;4984469;28;20244;-67
2023/03/20 11:18:54;;;;;;;0.80;0.80;;;14.70;99.90;;;;;;4983414;28;20230;-67
2023/03/20 11:21:25;;;;;;;0.80;0.50;;;14.70;99.90;;;;;;4985057;28;20293;-67
2023/03/20 11:23:53;;;;;;;0.60;0.60;;;14.80;99.90;;;;;;4986529;28;20680;-67
2023/03/20 11:26:36;;;;;;;0.60;0.50;;;14.70;99.90;;;;;;4984773;28;20791;-67
2023/03/20 11:29:07;;;;;;;0.85;0.65;;;14.80;99.90;;;;;;4983497;28;20223;-67
2023/03/20 11:31:36;;;;;;;1.40;1.30;;;14.70;99.90;;;;;;4983512;28;20253;-67
2023/03/20 11:34:25;;;;;;;0.90;0.90;;;14.80;99.90;;;;;;4983819;28;20209;-67
2023/03/20 11:36:57;;;;;;;0.70;0.70;;;14.70;99.90;;;;;;4978327;28;20297;-67
2023/03/20 11:39:38;;;;;;;1.55;1.45;;;14.50;99.90;;;;;;4967818;28;20202;-67
2023/03/20 11:42:23;;;;;;;0.85;0.70;;;14.40;99.90;;;;;;4982749;28;20216;-66
2023/03/20 11:44:58;;;;;;;0.70;0.60;;;14.20;99.90;;;;;;4977278;28;20222;-67
2023/03/20 11:47:28;;;;;;;2.05;1.65;;;14.10;99.90;;;;;;4985356;28;20739;-66
2023/03/20 11:49:58;;;;;;;1.10;0.95;;;14.00;99.90;;;;;;4986309;28;20716;-67
2023/03/20 11:52:29;;;;;;;1.85;1.13;;;13.90;99.90;;;;;;4983825;28;20214;-67
2023/03/20 11:54:59;;;;;;;1.05;0.95;;;13.80;99.90;;;;;;4982797;28;20717;-68
2023/03/20 11:57:35;;;;;;;1.10;1.00;;;13.80;99.90;;;;;;4985376;28;20242;-67
2023/03/20 12:00:06;;;;;;;2.20;1.90;;;13.70;99.90;;;;;;4986132;28;20212;-67
2023/03/20 12:02:36;;;;;;;0.75;0.75;;;13.70;99.90;;;;;;4975178;28;20249;-68
2023/03/20 12:05:19;;;;;;;1.08;0.98;;;14.00;99.90;;;;;;4981854;28;20230;-67
2023/03/20 12:07:49;;;;;;;0.50;0.30;;;14.50;99.90;;;;;;4972386;28;20207;-67
2023/03/20 12:10:18;;;;;;;0.95;0.95;;;15.00;99.90;;;;;;4975057;28;20693;-67
2023/03/20 12:12:53;;;;;;;0.85;0.85;;;15.40;99.90;;;;;;4985891;28;20256;-67
2023/03/20 12:15:25;;;;;;;0.75;0.73;;;15.60;99.90;;;;;;4983888;28;20331;-67
2023/03/20 12:17:57;;;;;;;0.68;0.68;;;15.90;99.90;;;;;;4982381;28;20210;-67
2023/03/20 12:20:32;;;;;;;1.05;0.63;;;16.00;99.90;;;;;;4984537;28;20696;-67
2023/03/20 12:23:06;;;;;;;0.60;0.50;;;16.10;99.90;;;;;;4985771;28;20676;-68
2023/03/20 12:25:40;;;;;;;0.60;0.47;;;16.20;99.90;;;;;;4974639;28;20230;-67
2023/03/20 12:28:17;;;;;;;1.67;0.85;;;15.90;99.90;;;;;;4982670;28;20297;-67
2023/03/20 12:30:57;;;;;;;1.05;0.63;;;15.70;99.90;;;;;;4975631;28;20222;-66
2023/03/20 12:33:37;;;;;;;0.60;0.47;;;15.50;99.90;;;;;;4984346;28;20206;-67
2023/03/20 12:36:12;;;;;;;1.05;0.68;;;15.40;99.90;;;;;;4985266;28;20324;-67
2023/03/20 12:38:42;;;;;;;0.60;0.50;;;15.20;99.90;;;;;;4978897;28;20740;-67
2023/03/20 12:41:13;;;;;;;0.65;0.45;;;15.10;99.90;;;;;;4973665;28;20218;-67
2023/03/20 12:44:07;;;;;;;0.57;0.40;;;15.10;99.90;;;;;;4985324;28;20229;-67
2023/03/20 12:46:43;;;;;;;0.50;0.30;;;15.00;99.90;;;;;;4977392;28;20226;-69
2023/03/20 12:49:34;;;;;;;0.60;0.52;;;15.10;99.90;;;;;;4984878;28;20214;-67
2023/03/20 12:52:15;;;;;;;0.50;0.40;;;15.30;99.90;;;;;;4981938;28;20678;-67
2023/03/20 12:55:07;;;;;;;0.50;0.40;;;15.30;99.90;;;;;;4981878;28;20265;-67
2023/03/20 12:57:41;;;;;;;0.50;0.40;;;15.10;99.90;;;;;;4973944;28;20737;-68
2023/03/20 13:00:20;;;;;;;0.85;0.85;;;15.10;99.90;;;;;;4981907;28;20217;-67
2023/03/20 13:03:05;;;;;;;0.50;0.30;;;15.10;99.90;;;;;;4984802;28;20260;-67
2023/03/20 13:05:41;;;;;;;0.70;0.65;;;15.00;99.90;;;;;;4981916;28;20258;-67
2023/03/20 13:08:33;;;;;;;0.60;0.50;;;14.90;99.90;;;;;;4977234;28;20637;-68
2023/03/20 13:11:10;;;;;;;0.70;0.60;;;14.90;99.90;;;;;;4981531;28;20313;-67